Payson, AZ

9:50 AM MST on July 25, 2016 (GMT -0700)
NW Payson | | Change Station

Elev 5036 ft 34.26 °N, 111.33 °W | Updated 1 second ago

Partly Cloudy
Partly Cloudy
82.0 °F
Feels Like 82 °F
N
1.0
Wind Variable Wind from West
Gusts 3.0 mph

Today
High -- | Low -- °F
--% Chance of Precip.
Yesterday
High -- | Low -- °F
Precip. -- in
Pressure 29.95 in
Visibility 10.0 miles
Clouds Few 11000 ft
Heat Index 82 °F
Dew Point 59 °F
Humidity 46%
Rainfall 0.00 in
Snow Depth Not available.
5:31 AM 7:31 PM
Waning Gibbous, 64% visible
METAR KPRC 251553Z 11008KT 10SM FEW110 27/16 A3024 RMK AO2 SLP141 T02720156
Pressure 29.95 in
Visibility 10.0 miles
Clouds Few 11000 ft
Heat Index 82 °F
Dew Point 59 °F
Humidity 46%
Rainfall 0.00 in
Snow Depth Not available.
5:31 AM 7:31 PM
Waning Gibbous, 64% visible
METAR KPRC 251553Z 11008KT 10SM FEW110 27/16 A3024 RMK AO2 SLP141 T02720156

10-Day Weather Forecast

Almanac

Astronomy

Jul. 25, 2016 Rise Set
Actual Time
Civil Twilight
Nautical Twilight
Astronomical Twilight
Moon
Length of Visible Light
Length of Day
Tomorrow will be .
, % of the Moon is Illuminated

Today's Extremes

State Highs State Lows

Community

WunderPhotos

Upload Photos

1,927,349 photos uploaded!

WunderBlog® & News

Nearby

Air Quality

  Air Quality AQ Index Pollutant
Not available.

Snow Depth

Station Depth Elevation

Earthquake Activity

City Distance Mag. Time & Date
Minimum magnitude displayed is 2.5.

Coastal Water Temperatures

Place Temperature

Stations

Nearby Weather Stations

Station Location Temp. Windchill Dew Point Humidity Wind Precip. Elev Updated Type
                   

Watches & Warnings

There are currently no watches in effect.